createdAt,value
2022-09-07T00:00:03.078Z,73.29
2022-09-07T00:02:29.683Z,73.10
2022-09-07T00:04:56.217Z,75.18
2022-09-07T00:07:22.975Z,74.62
2022-09-07T00:09:51.305Z,74.18
2022-09-07T00:12:17.905Z,75.03
2022-09-07T00:14:44.545Z,74.78
2022-09-07T00:17:11.103Z,74.89
2022-09-07T00:19:37.628Z,72.09
2022-09-07T00:22:04.163Z,73.21
2022-09-07T00:24:30.963Z,72.99
2022-09-07T00:26:57.530Z,73.23
2022-09-07T00:29:24.175Z,72.43
2022-09-07T00:31:50.779Z,74.25
2022-09-07T00:34:17.402Z,75.07
2022-09-07T00:36:43.997Z,74.78
2022-09-07T00:39:10.551Z,74.17
2022-09-07T00:41:37.055Z,72.48
2022-09-07T00:44:41.064Z,71.72
2022-09-07T00:47:13.040Z,71.50
2022-09-07T00:49:40.081Z,72.16
2022-09-07T00:52:08.031Z,71.38
2022-09-07T00:54:51.229Z,71.07
2022-09-07T00:57:17.939Z,71.51
2022-09-07T00:59:48.483Z,71.82
2022-09-07T01:02:17.429Z,71.34
2022-09-07T01:04:48.290Z,73.48
2022-09-07T01:07:15.146Z,70.97
2022-09-07T01:09:43.013Z,71.12
2022-09-07T01:12:09.647Z,72.03
2022-09-07T01:14:45.676Z,71.56
2022-09-07T01:17:30.511Z,72.22
2022-09-07T01:20:12.247Z,71.46
2022-09-07T01:23:13.702Z,71.55
2022-09-07T01:25:55.503Z,72.15
2022-09-07T01:28:26.220Z,71.57
2022-09-07T01:30:59.440Z,72.57
2022-09-07T01:33:51.729Z,72.06
2022-09-07T01:36:48.699Z,72.32
2022-09-07T01:39:16.466Z,73.20
2022-09-07T01:42:01.701Z,73.84
2022-09-07T01:44:58.683Z,73.79
2022-09-07T01:47:40.033Z,76.13
2022-09-07T01:50:17.179Z,74.45
2022-09-07T01:52:56.497Z,75.52
2022-09-07T01:55:47.766Z,75.04
2022-09-07T01:58:24.028Z,75.27
2022-09-07T02:00:55.451Z,76.89
2022-09-07T02:03:30.124Z,76.16
2022-09-07T02:06:11.635Z,75.76
2022-09-07T02:08:45.946Z,75.83
2022-09-07T02:11:27.888Z,74.80
2022-09-07T02:13:59.770Z,74.19
2022-09-07T02:16:28.336Z,76.65
2022-09-07T02:19:17.022Z,77.09
2022-09-07T02:21:56.232Z,76.67
2022-09-07T02:24:31.237Z,77.77
2022-09-07T02:26:59.648Z,78.72
2022-09-07T02:29:30.327Z,79.82
2022-09-07T02:31:57.579Z,78.99
2022-09-07T02:34:24.294Z,77.17
2022-09-07T02:36:52.531Z,78.76
2022-09-07T02:39:19.118Z,79.28
2022-09-07T02:41:46.506Z,78.22
2022-09-07T02:44:31.661Z,79.97
2022-09-07T02:47:23.333Z,80.00
2022-09-07T02:49:52.630Z,80.12
2022-09-07T02:52:22.036Z,80.37
2022-09-07T02:55:17.372Z,78.32
2022-09-07T02:57:54.966Z,78.45
2022-09-07T03:00:26.317Z,80.34
2022-09-07T03:03:37.770Z,80.26
2022-09-07T03:06:09.842Z,81.01
2022-09-07T03:08:41.104Z,80.07
2022-09-07T03:11:08.476Z,80.54
2022-09-07T03:13:35.059Z,80.15
2022-09-07T03:16:01.941Z,80.92
2022-09-07T03:18:29.114Z,80.52
2022-09-07T03:20:55.977Z,80.12
2022-09-07T03:23:22.648Z,81.42
2022-09-07T03:25:49.511Z,78.20
2022-09-07T03:28:16.301Z,79.19
2022-09-07T03:30:49.561Z,79.01
2022-09-07T03:33:16.818Z,81.04
2022-09-07T03:35:44.599Z,81.13
2022-09-07T03:38:11.430Z,80.09
2022-09-07T03:40:38.029Z,81.95
2022-09-07T03:43:05.081Z,80.56
2022-09-07T03:45:31.724Z,78.57
2022-09-07T03:47:58.866Z,81.60
2022-09-07T03:50:25.450Z,82.59
2022-09-07T03:52:51.971Z,81.30
2022-09-07T03:55:18.505Z,80.42
2022-09-07T03:57:45.070Z,83.48
2022-09-07T04:00:12.304Z,79.98
2022-09-07T04:02:39.011Z,82.63
2022-09-07T04:05:05.744Z,82.36
2022-09-07T04:07:32.370Z,82.29
2022-09-07T04:09:58.911Z,83.21
2022-09-07T04:12:26.121Z,82.66
2022-09-07T04:14:52.707Z,83.08
2022-09-07T04:17:19.283Z,84.53
2022-09-07T04:19:45.812Z,82.20
2022-09-07T04:22:12.364Z,83.16
2022-09-07T04:24:38.939Z,82.82
2022-09-07T04:27:05.496Z,81.64
2022-09-07T04:29:32.077Z,80.74
2022-09-07T04:31:58.613Z,81.77
2022-09-07T04:34:25.150Z,83.86
2022-09-07T04:36:52.013Z,81.50
2022-09-07T04:39:18.572Z,82.91
2022-09-07T04:41:45.104Z,81.24
2022-09-07T04:44:16.108Z,80.25
2022-09-07T04:46:43.455Z,81.08
2022-09-07T04:49:11.069Z,79.89
2022-09-07T04:51:39.740Z,81.79
2022-09-07T04:54:07.011Z,79.95
2022-09-07T04:56:33.654Z,82.27
2022-09-07T04:59:01.958Z,83.05
2022-09-07T05:01:29.165Z,80.40
2022-09-07T05:03:55.770Z,81.64
2022-09-07T05:06:23.593Z,82.14
2022-09-07T05:08:52.841Z,82.68
2022-09-07T05:11:22.873Z,82.17
2022-09-07T05:13:55.089Z,80.69
2022-09-07T05:16:24.352Z,79.80
2022-09-07T05:18:52.978Z,79.74
2022-09-07T05:21:22.330Z,79.71
2022-09-07T05:23:51.574Z,79.24
2022-09-07T05:26:19.521Z,79.06
2022-09-07T05:28:46.270Z,79.22
2022-09-07T05:36:40.484Z,79.04
2022-09-07T05:39:08.320Z,77.47
2022-09-07T05:41:35.240Z,77.68
2022-09-07T05:46:48.811Z,75.80
2022-09-07T05:49:15.364Z,73.74
2022-09-07T05:51:41.918Z,72.45
2022-09-07T05:54:08.489Z,71.28
2022-09-07T05:56:36.088Z,70.23
2022-09-07T05:59:03.665Z,69.61
2022-09-07T06:01:30.626Z,68.37
2022-09-07T06:03:57.520Z,68.64
2022-09-07T06:06:24.306Z,69.57
2022-09-07T06:08:53.666Z,67.42
2022-09-07T06:11:22.354Z,68.96
2022-09-07T06:13:49.462Z,68.03
2022-09-07T06:16:17.394Z,66.12
2022-09-07T06:18:45.955Z,68.60
2022-09-07T06:21:17.887Z,66.79
2022-09-07T06:23:45.980Z,65.13
2022-09-07T06:26:13.023Z,62.13
2022-09-07T06:28:42.483Z,62.99
2022-09-07T06:31:13.537Z,65.78
2022-09-07T06:33:41.812Z,65.53
2022-09-07T06:36:15.603Z,65.47
2022-09-07T06:38:42.764Z,66.68
2022-09-07T06:44:01.643Z,65.80
2022-09-07T06:49:14.800Z,66.54
2022-09-07T06:51:41.389Z,59.28
2022-09-07T06:56:55.500Z,62.00
2022-09-07T06:59:22.049Z,63.83
2022-09-07T07:01:49.101Z,58.25
2022-09-07T07:04:15.718Z,53.96
2022-09-07T07:06:42.437Z,57.39
2022-09-07T07:09:12.200Z,59.58
2022-09-07T07:11:38.810Z,60.53
2022-09-07T07:14:05.445Z,51.08
2022-09-07T07:16:32.092Z,53.02
2022-09-07T07:18:58.685Z,50.34
2022-09-07T07:21:25.348Z,49.85
2022-09-07T07:23:53.714Z,47.04
2022-09-07T07:26:22.979Z,50.21
2022-09-07T07:29:06.821Z,47.86
2022-09-07T07:31:34.984Z,50.17
2022-09-07T07:34:02.042Z,45.66
2022-09-07T07:36:28.628Z,45.19
2022-09-07T07:44:20.400Z,48.28
2022-09-07T07:46:49.061Z,47.22
2022-09-07T07:49:16.009Z,48.26
2022-09-07T07:54:29.269Z,40.85
2022-09-07T07:56:55.786Z,44.23
2022-09-07T07:59:22.292Z,43.44
2022-09-07T08:01:49.237Z,42.92
2022-09-07T08:04:15.870Z,41.89
2022-09-07T08:06:42.973Z,40.96
2022-09-07T08:09:11.137Z,39.34
2022-09-07T08:11:40.055Z,45.41
2022-09-07T08:14:08.573Z,40.58
2022-09-07T08:16:36.301Z,43.91
2022-09-07T08:19:03.388Z,39.75
2022-09-07T08:21:29.967Z,39.21
2022-09-07T08:23:57.039Z,41.21
2022-09-07T08:26:23.631Z,39.37
2022-09-07T08:28:50.181Z,38.68
2022-09-07T08:31:17.265Z,40.87
2022-09-07T08:33:44.414Z,40.47
2022-09-07T08:36:13.898Z,39.96
2022-09-07T08:38:41.682Z,41.44
2022-09-07T08:41:37.023Z,40.52
2022-09-07T08:44:24.244Z,39.67
2022-09-07T08:47:11.087Z,39.43
2022-09-07T08:49:46.303Z,41.35
2022-09-07T08:52:25.737Z,40.10
2022-09-07T08:55:16.408Z,38.54
2022-09-07T08:57:52.816Z,40.26
2022-09-07T09:00:19.915Z,42.62
2022-09-07T09:03:28.650Z,42.52
2022-09-07T09:06:09.858Z,43.60
2022-09-07T09:09:01.445Z,43.89
2022-09-07T09:11:44.284Z,43.59
2022-09-07T09:14:17.291Z,40.71
2022-09-07T09:16:53.065Z,42.75
2022-09-07T09:19:54.366Z,43.77
2022-09-07T09:22:23.249Z,43.42
2022-09-07T09:24:56.216Z,44.76
2022-09-07T09:27:22.758Z,43.22
2022-09-07T09:29:49.301Z,43.88
2022-09-07T09:32:36.086Z,44.26
2022-09-07T09:35:13.592Z,43.14
2022-09-07T09:37:41.090Z,43.86
2022-09-07T09:40:23.407Z,42.36
2022-09-07T09:42:59.971Z,40.66
2022-09-07T09:45:30.795Z,39.93
2022-09-07T09:48:00.360Z,41.00
2022-09-07T09:53:40.471Z,39.62
2022-09-07T09:56:07.849Z,39.48
2022-09-07T10:01:33.599Z,41.69
2022-09-07T10:04:30.642Z,41.99
2022-09-07T10:07:14.890Z,42.12
2022-09-07T10:09:48.387Z,43.57
2022-09-07T10:12:24.639Z,41.44
2022-09-07T10:14:51.410Z,39.67
2022-09-07T10:17:37.144Z,39.16
2022-09-07T10:20:12.800Z,39.44
2022-09-07T10:22:40.381Z,39.61
2022-09-07T10:25:28.401Z,39.71
2022-09-07T10:28:18.154Z,40.44
2022-09-07T10:31:03.082Z,40.68
2022-09-07T10:36:54.900Z,39.93
2022-09-07T10:39:27.898Z,40.92
2022-09-07T10:42:32.689Z,40.83
2022-09-07T10:45:14.150Z,41.74
2022-09-07T10:48:05.503Z,43.47
2022-09-07T10:50:32.002Z,43.40
2022-09-07T10:53:36.597Z,43.53
2022-09-07T10:56:05.260Z,44.05
2022-09-07T11:01:39.743Z,46.36
2022-09-07T11:04:12.029Z,46.47
2022-09-07T11:06:45.991Z,47.04
2022-09-07T11:09:57.376Z,47.37
2022-09-07T11:12:38.144Z,47.54
2022-09-07T11:15:15.612Z,46.65
2022-09-07T11:17:59.772Z,48.04
2022-09-07T11:20:45.736Z,50.30
2022-09-07T11:23:31.139Z,48.25
2022-09-07T11:26:01.508Z,47.20
2022-09-07T11:28:37.159Z,45.92
2022-09-07T11:31:13.469Z,45.96
2022-09-07T11:37:04.650Z,46.25
2022-09-07T11:39:39.166Z,47.31
2022-09-07T11:45:19.473Z,48.30
2022-09-07T11:48:01.458Z,46.18
2022-09-07T11:50:32.792Z,45.63
2022-09-07T11:53:07.339Z,44.68
2022-09-07T11:55:40.380Z,44.90
2022-09-07T11:58:24.051Z,44.55
2022-09-07T12:01:10.801Z,44.28
2022-09-07T12:04:14.729Z,44.55
2022-09-07T12:06:41.850Z,44.41
2022-09-07T12:09:11.248Z,45.64
2022-09-07T12:11:58.649Z,45.64
2022-09-07T12:14:28.160Z,47.37
2022-09-07T12:17:15.328Z,48.00
2022-09-07T12:19:42.673Z,47.75
2022-09-07T12:22:22.453Z,46.53
2022-09-07T12:24:51.581Z,44.87
2022-09-07T12:27:21.127Z,45.65
2022-09-07T12:30:10.895Z,44.93
2022-09-07T12:32:54.647Z,45.14
2022-09-07T12:35:31.063Z,44.30
2022-09-07T12:38:01.195Z,44.69
2022-09-07T12:40:30.206Z,44.53
2022-09-07T12:43:14.973Z,45.06
2022-09-07T12:45:42.086Z,44.99
2022-09-07T12:48:17.399Z,44.02
2022-09-07T12:50:58.819Z,44.51
2022-09-07T12:53:28.764Z,44.90
2022-09-07T12:56:27.603Z,44.45
2022-09-07T12:59:31.649Z,44.34
2022-09-07T13:02:04.734Z,44.82
2022-09-07T13:04:54.054Z,45.98
2022-09-07T13:07:40.507Z,47.14
2022-09-07T13:10:42.992Z,46.97
2022-09-07T13:14:10.644Z,45.71
2022-09-07T13:16:11.717Z,46.41
2022-09-07T13:18:41.215Z,48.86
2022-09-07T13:21:07.875Z,49.11
2022-09-07T13:23:37.883Z,49.66
2022-09-07T13:26:08.622Z,50.82
2022-09-07T13:28:56.181Z,49.94
2022-09-07T13:31:22.581Z,50.01
2022-09-07T13:33:53.572Z,51.77
2022-09-07T13:36:42.314Z,51.97
2022-09-07T13:39:15.986Z,51.92
2022-09-07T13:41:48.791Z,51.88
2022-09-07T13:44:25.060Z,52.76
2022-09-07T13:46:58.216Z,52.03
2022-09-07T13:49:45.911Z,51.02
2022-09-07T13:52:15.303Z,51.85
2022-09-07T13:54:50.811Z,51.33
2022-09-07T13:57:42.957Z,50.13
2022-09-07T14:00:17.284Z,50.86
2022-09-07T14:02:44.123Z,51.92
2022-09-07T14:05:17.371Z,49.15
2022-09-07T14:07:45.889Z,50.51
2022-09-07T14:10:14.203Z,50.80
2022-09-07T14:12:48.971Z,51.19
2022-09-07T14:15:20.266Z,50.29
2022-09-07T14:17:47.584Z,49.47
2022-09-07T14:20:15.902Z,48.84
2022-09-07T14:22:43.636Z,48.90
2022-09-07T14:25:18.687Z,49.62
2022-09-07T14:27:47.334Z,49.23
2022-09-07T14:30:16.467Z,49.37
2022-09-07T14:32:44.162Z,48.98
2022-09-07T14:35:17.650Z,50.45
2022-09-07T14:37:46.165Z,50.37
2022-09-07T14:40:20.756Z,50.60
2022-09-07T14:42:49.885Z,49.66
2022-09-07T14:45:22.178Z,49.88
2022-09-07T14:47:52.269Z,51.31
2022-09-07T14:50:22.737Z,49.68
2022-09-07T14:55:42.397Z,48.90
2022-09-07T14:58:14.842Z,48.68
2022-09-07T15:03:41.066Z,49.25
2022-09-07T15:07:00.497Z,48.50
2022-09-07T15:08:56.616Z,49.50
2022-09-07T15:11:41.036Z,49.04
2022-09-07T15:14:20.513Z,47.85
2022-09-07T15:19:45.577Z,48.64
2022-09-07T15:22:13.387Z,49.36
2022-09-07T15:24:39.855Z,48.73
2022-09-07T15:27:24.551Z,48.85
2022-09-07T15:29:51.103Z,48.19
2022-09-07T15:32:18.688Z,49.00
2022-09-07T15:34:45.468Z,48.45
2022-09-07T15:39:59.189Z,49.15
2022-09-07T15:45:13.028Z,49.36
2022-09-07T15:47:47.210Z,50.10
2022-09-07T15:50:14.449Z,49.13
2022-09-07T15:52:41.010Z,48.65
2022-09-07T15:55:08.804Z,49.22
2022-09-07T15:57:59.221Z,49.76
2022-09-07T16:00:22.091Z,49.82
2022-09-07T16:03:05.772Z,50.49
2022-09-07T16:05:33.527Z,50.53
2022-09-07T16:10:53.607Z,50.95
2022-09-07T16:13:20.679Z,50.59
2022-09-07T16:15:48.813Z,51.29
2022-09-07T16:18:17.511Z,50.06
2022-09-07T16:20:44.941Z,50.65
2022-09-07T16:23:14.659Z,51.16
2022-09-07T16:25:43.220Z,51.40
2022-09-07T16:28:10.402Z,52.89
2022-09-07T16:30:40.463Z,53.84
2022-09-07T16:33:07.300Z,53.81
2022-09-07T16:35:33.917Z,52.81
2022-09-07T16:40:47.163Z,54.27
2022-09-07T16:43:13.664Z,55.13
2022-09-07T16:48:26.695Z,55.41
2022-09-07T16:51:00.326Z,55.87
2022-09-07T16:53:31.551Z,56.03
2022-09-07T16:56:08.839Z,57.22
2022-09-07T16:58:38.029Z,57.64
2022-09-07T17:01:09.634Z,58.02
2022-09-07T17:03:37.792Z,57.21
2022-09-07T17:06:06.986Z,58.11
2022-09-07T17:08:34.642Z,56.59
2022-09-07T17:11:03.323Z,59.19
2022-09-07T17:13:33.912Z,59.68
2022-09-07T17:16:08.466Z,56.33
2022-09-07T17:21:23.243Z,57.00
2022-09-07T17:23:55.183Z,59.87
2022-09-07T17:26:26.230Z,59.75
2022-09-07T17:28:55.738Z,60.10
2022-09-07T17:34:13.391Z,59.77
2022-09-07T17:36:40.412Z,61.03
2022-09-07T17:39:16.261Z,60.66
2022-09-07T17:41:43.760Z,57.70
2022-09-07T17:44:10.346Z,61.35
2022-09-07T17:46:36.849Z,61.85
2022-09-07T17:49:06.927Z,61.74
2022-09-07T17:51:33.460Z,61.53
2022-09-07T17:54:02.649Z,59.84
2022-09-07T17:56:30.004Z,61.09
2022-09-07T18:00:10.513Z,61.71
2022-09-07T18:01:43.635Z,61.99
2022-09-07T18:04:11.025Z,61.90
2022-09-07T18:06:37.630Z,62.50
2022-09-07T18:09:04.946Z,62.74
2022-09-07T18:11:48.568Z,62.36
2022-09-07T18:14:16.543Z,63.73
2022-09-07T18:16:45.236Z,63.58
2022-09-07T18:19:12.747Z,64.64
2022-09-07T18:21:42.168Z,62.13
2022-09-07T18:24:18.598Z,65.02
2022-09-07T18:26:53.789Z,63.12
2022-09-07T18:29:32.862Z,65.32
2022-09-07T18:32:03.060Z,66.83
2022-09-07T18:34:30.739Z,67.11
2022-09-07T18:36:58.551Z,68.54
2022-09-07T18:39:25.868Z,66.02
2022-09-07T18:41:54.239Z,71.19
2022-09-07T18:47:08.623Z,71.41
2022-09-07T18:49:35.402Z,72.37
2022-09-07T18:54:48.741Z,72.24
2022-09-07T18:57:15.583Z,71.26
2022-09-07T18:59:42.197Z,71.61
2022-09-07T19:02:10.659Z,70.86
2022-09-07T19:07:28.984Z,71.95
2022-09-07T19:09:57.014Z,73.39
2022-09-07T19:12:24.225Z,72.32
2022-09-07T19:14:51.087Z,71.92
2022-09-07T19:17:17.889Z,71.82
2022-09-07T19:19:44.448Z,70.85
2022-09-07T19:22:11.037Z,70.76
2022-09-07T19:24:37.587Z,70.15
2022-09-07T19:27:04.110Z,70.46
2022-09-07T19:29:30.636Z,70.56
2022-09-07T19:32:11.746Z,68.50
2022-09-07T19:34:41.201Z,68.13
2022-09-07T19:37:10.231Z,69.17
2022-09-07T19:39:37.104Z,69.19
2022-09-07T19:42:05.254Z,71.22
2022-09-07T19:44:32.582Z,69.17
2022-09-07T19:47:00.381Z,70.62
2022-09-07T19:49:27.649Z,71.62
2022-09-07T19:51:54.830Z,71.01
2022-09-07T19:54:21.470Z,71.07
2022-09-07T19:56:48.213Z,70.31
2022-09-07T19:59:14.747Z,71.78
2022-09-07T20:01:45.950Z,71.63
2022-09-07T20:04:20.407Z,71.85
2022-09-07T20:06:50.068Z,71.95
2022-09-07T20:09:18.589Z,71.92
2022-09-07T20:11:47.442Z,70.54
2022-09-07T20:14:15.651Z,70.84
2022-09-07T20:16:42.315Z,71.48
2022-09-07T20:19:13.625Z,72.75
2022-09-07T20:21:40.205Z,73.60
2022-09-07T20:24:06.798Z,72.47
2022-09-07T20:26:33.448Z,73.40
2022-09-07T20:29:25.695Z,73.94
2022-09-07T20:31:47.226Z,72.91
2022-09-07T20:34:14.602Z,73.88
2022-09-07T20:36:41.365Z,74.98
2022-09-07T20:39:08.127Z,75.80
2022-09-07T20:41:35.171Z,76.67
2022-09-07T20:44:03.430Z,76.84
2022-09-07T20:46:30.429Z,76.37
2022-09-07T20:48:57.487Z,76.69
2022-09-07T20:51:24.166Z,75.96
2022-09-07T20:53:51.026Z,73.75
2022-09-07T20:56:22.903Z,75.61
2022-09-07T20:58:54.579Z,75.78
2022-09-07T21:01:21.612Z,74.25
2022-09-07T21:03:53.613Z,74.26
2022-09-07T21:06:22.425Z,75.01
2022-09-07T21:08:50.089Z,75.71
2022-09-07T21:11:18.101Z,74.85
2022-09-07T21:13:45.167Z,74.06
2022-09-07T21:16:14.076Z,73.07
2022-09-07T21:18:41.142Z,71.64
2022-09-07T21:21:22.899Z,70.82
2022-09-07T21:23:54.708Z,71.38
2022-09-07T21:26:21.497Z,71.97
2022-09-07T21:28:48.259Z,72.43
2022-09-07T21:31:14.911Z,72.88
2022-09-07T21:33:41.498Z,75.73
2022-09-07T21:36:10.585Z,78.11
2022-09-07T21:38:40.525Z,79.81
2022-09-07T21:41:08.659Z,79.09
2022-09-07T21:43:35.959Z,81.61
2022-09-07T21:46:11.232Z,81.65
2022-09-07T21:48:38.151Z,81.19
2022-09-07T21:51:05.425Z,80.98
2022-09-07T21:53:32.004Z,80.75
2022-09-07T21:56:00.971Z,80.76
2022-09-07T21:58:28.879Z,80.04
2022-09-07T22:00:56.938Z,78.99
2022-09-07T22:03:25.187Z,79.05
2022-09-07T22:05:51.752Z,78.27
2022-09-07T22:08:18.780Z,78.92
2022-09-07T22:10:46.486Z,79.22
2022-09-07T22:13:13.035Z,79.29
2022-09-07T22:15:40.935Z,78.12
2022-09-07T22:18:11.383Z,78.68
2022-09-07T22:20:38.112Z,78.98
2022-09-07T22:23:05.350Z,78.67
2022-09-07T22:25:32.509Z,78.98
2022-09-07T22:27:59.283Z,78.99
2022-09-07T22:30:25.841Z,78.97
2022-09-07T22:32:52.759Z,78.81
2022-09-07T22:35:20.264Z,78.04
2022-09-07T22:37:46.896Z,79.08
2022-09-07T22:40:14.757Z,78.63
2022-09-07T22:42:41.932Z,78.27
2022-09-07T22:45:08.993Z,78.04
2022-09-07T22:47:35.549Z,77.85
2022-09-07T22:50:02.044Z,77.11
2022-09-07T22:52:28.552Z,77.33
2022-09-07T22:54:55.030Z,76.58
2022-09-07T22:57:21.601Z,77.58
2022-09-07T22:59:48.099Z,77.76
2022-09-07T23:02:14.691Z,78.11
2022-09-07T23:04:41.357Z,77.25
2022-09-07T23:07:08.206Z,78.27
2022-09-07T23:09:34.769Z,78.09
2022-09-07T23:12:01.466Z,77.88
2022-09-07T23:14:28.001Z,77.32
2022-09-07T23:16:54.500Z,77.40
2022-09-07T23:19:21.485Z,78.81
2022-09-07T23:21:48.027Z,78.85
2022-09-07T23:24:16.846Z,79.24
2022-09-07T23:26:43.915Z,79.70
2022-09-07T23:29:12.763Z,79.61
2022-09-07T23:31:40.592Z,78.71
2022-09-07T23:34:07.756Z,78.18
2022-09-07T23:36:34.549Z,78.44
2022-09-07T23:39:01.448Z,78.34
2022-09-07T23:41:28.001Z,77.43
2022-09-07T23:43:55.105Z,78.43
2022-09-07T23:46:22.023Z,78.82
2022-09-07T23:48:49.281Z,79.66
2022-09-07T23:51:19.979Z,80.00
2022-09-07T23:53:49.786Z,80.16
2022-09-07T23:56:16.336Z,80.80
2022-09-07T23:58:43.102Z,80.09
